createdAt,value
2022-09-23T00:01:03.601Z,97358.91
2022-09-23T00:03:32.995Z,97358.91
2022-09-23T00:06:02.604Z,97362.06
2022-09-23T00:08:31.320Z,97354.34
2022-09-23T00:11:05.674Z,97362.63
2022-09-23T00:13:33.910Z,97357.81
2022-09-23T00:16:03.923Z,97356.22
2022-09-23T00:18:31.916Z,97353.00
2022-09-23T00:21:03.848Z,97353.53
2022-09-23T00:23:31.937Z,97354.09
2022-09-23T00:26:02.825Z,97352.50
2022-09-23T00:28:31.489Z,97353.28
2022-09-23T00:31:03.365Z,97349.00
2022-09-23T00:33:31.389Z,97355.41
2022-09-23T00:36:00.460Z,97340.16
2022-09-23T00:38:29.141Z,97339.66
2022-09-23T00:41:17.103Z,97348.47
2022-09-23T00:43:47.606Z,97338.84
2022-09-23T00:46:19.501Z,97338.53
2022-09-23T00:48:49.495Z,97332.13
2022-09-23T00:51:19.638Z,97334.28
2022-09-23T00:53:48.665Z,97332.94
2022-09-23T00:56:20.366Z,97325.72
2022-09-23T00:58:48.883Z,97328.91
2022-09-23T01:01:16.946Z,97326.81
2022-09-23T01:03:46.863Z,97323.06
2022-09-23T01:06:15.400Z,97326.53
2022-09-23T01:08:44.236Z,97323.59
2022-09-23T01:11:26.103Z,97321.19
2022-09-23T01:13:59.282Z,97328.72
2022-09-23T01:16:31.991Z,97324.72
2022-09-23T01:19:08.470Z,97308.41
2022-09-23T01:21:44.215Z,97304.94
2022-09-23T01:24:39.707Z,97306.81
2022-09-23T01:27:17.293Z,97302.53
2022-09-23T01:30:18.984Z,97304.94
2022-09-23T01:33:04.594Z,97299.34
2022-09-23T01:35:47.771Z,97297.75
2022-09-23T01:38:34.683Z,97297.75
2022-09-23T01:41:06.143Z,97290.50
2022-09-23T01:43:39.729Z,97292.38
2022-09-23T01:46:11.332Z,97291.56
2022-09-23T01:48:46.416Z,97301.22
2022-09-23T01:51:18.213Z,97297.72
2022-09-23T01:53:49.036Z,97291.06
2022-09-23T01:56:21.030Z,97281.69
2022-09-23T01:58:52.221Z,97287.59
2022-09-23T02:01:23.054Z,97283.84
2022-09-23T02:03:55.435Z,97284.09
2022-09-23T02:06:26.604Z,97282.25
2022-09-23T02:09:00.356Z,97287.84
2022-09-23T02:11:28.724Z,97283.56
2022-09-23T02:14:00.185Z,97287.31
2022-09-23T02:16:31.631Z,97285.19
2022-09-23T02:19:02.896Z,97289.44
2022-09-23T02:21:35.029Z,97278.50
2022-09-23T02:24:09.138Z,97285.72
2022-09-23T02:26:41.519Z,97288.13
2022-09-23T02:29:18.359Z,97283.59
2022-09-23T02:31:50.527Z,97286.78
2022-09-23T02:34:29.295Z,97293.19
2022-09-23T02:37:06.959Z,97281.97
2022-09-23T02:39:41.276Z,97282.50
2022-09-23T02:42:13.890Z,97281.97
2022-09-23T02:44:42.409Z,97280.91
2022-09-23T02:47:10.637Z,97276.88
2022-09-23T02:49:40.210Z,97286.78
2022-09-23T02:52:08.409Z,97282.50
2022-09-23T02:54:36.440Z,97284.09
2022-09-23T02:57:06.623Z,97285.44
2022-09-23T02:59:35.483Z,97286.78
2022-09-23T03:02:36.978Z,97282.53
2022-09-23T03:05:09.116Z,97282.50
2022-09-23T03:07:46.360Z,97272.34
2022-09-23T03:10:19.765Z,97280.88
2022-09-23T03:12:54.034Z,97275.00
2022-09-23T03:15:26.349Z,97266.47
2022-09-23T03:17:58.975Z,97269.66
2022-09-23T03:20:34.188Z,97261.38
2022-09-23T03:23:04.856Z,97269.94
2022-09-23T03:25:36.214Z,97267.25
2022-09-23T03:28:05.203Z,97257.91
2022-09-23T03:30:35.576Z,97268.59
2022-09-23T03:33:05.050Z,97270.72
2022-09-23T03:38:52.989Z,97271.78
2022-09-23T03:41:24.632Z,97272.06
2022-09-23T03:43:53.370Z,97267.47
2022-09-23T03:46:21.456Z,97273.06
2022-09-23T03:48:49.577Z,97266.91
2022-09-23T03:51:23.888Z,97259.47
2022-09-23T03:53:52.092Z,97261.34
2022-09-23T03:56:20.136Z,97265.06
2022-09-23T03:58:48.968Z,97256.25
2022-09-23T04:01:17.114Z,97256.25
2022-09-23T04:03:45.437Z,97250.38
2022-09-23T04:06:13.999Z,97247.16
2022-09-23T04:08:43.531Z,97243.44
2022-09-23T04:11:11.847Z,97250.38
2022-09-23T04:13:40.546Z,97242.38
2022-09-23T04:16:08.690Z,97240.22
2022-09-23T04:18:36.830Z,97235.19
2022-09-23T04:21:05.217Z,97241.31
2022-09-23T04:23:33.330Z,97242.38
2022-09-23T04:26:02.984Z,97241.31
2022-09-23T04:28:31.356Z,97234.63
2022-09-23T04:30:59.527Z,97239.72
2022-09-23T04:33:28.260Z,97243.44
2022-09-23T04:35:57.080Z,97237.56
2022-09-23T04:38:25.268Z,97241.28
2022-09-23T04:40:53.477Z,97240.75
2022-09-23T04:43:24.122Z,97248.47
2022-09-23T04:45:59.955Z,97244.44
2022-09-23T04:48:28.168Z,97243.38
2022-09-23T04:50:56.466Z,97242.56
2022-09-23T04:53:24.536Z,97250.31
2022-09-23T04:55:52.847Z,97254.03
2022-09-23T04:58:23.104Z,97252.97
2022-09-23T05:00:51.272Z,97254.00
2022-09-23T05:03:19.372Z,97263.56
2022-09-23T05:05:47.740Z,97255.00
2022-09-23T05:08:16.002Z,97258.44
2022-09-23T05:10:44.262Z,97257.13
2022-09-23T05:13:12.430Z,97255.28
2022-09-23T05:15:41.803Z,97258.25
2022-09-23T05:18:09.941Z,97256.38
2022-09-23T05:20:38.064Z,97268.91
2022-09-23T05:23:06.491Z,97266.78
2022-09-23T05:25:38.227Z,97264.63
2022-09-23T05:28:06.909Z,97266.22
2022-09-23T05:30:35.025Z,97266.78
2022-09-23T05:33:04.662Z,97266.28
2022-09-23T05:35:32.783Z,97274.00
2022-09-23T05:38:01.057Z,97265.50
2022-09-23T05:40:29.391Z,97273.22
2022-09-23T05:42:57.560Z,97275.38
2022-09-23T05:45:26.964Z,97274.81
2022-09-23T05:47:55.150Z,97276.44
2022-09-23T05:50:24.743Z,97274.00
2022-09-23T05:52:53.004Z,97284.16
2022-09-23T05:55:21.238Z,97282.00
2022-09-23T05:57:49.276Z,97270.28
2022-09-23T06:00:17.743Z,97274.25
2022-09-23T06:02:45.999Z,97268.97
2022-09-23T06:05:14.757Z,97285.78
2022-09-23T06:07:44.829Z,97276.44
2022-09-23T06:10:13.073Z,97265.78
2022-09-23T06:12:42.465Z,97266.88
2022-09-23T06:15:12.130Z,97268.19
2022-09-23T06:17:40.326Z,97265.78
2022-09-23T06:20:09.390Z,97264.72
2022-09-23T06:22:39.741Z,97262.63
2022-09-23T06:25:10.880Z,97269.00
2022-09-23T06:27:39.141Z,97272.50
2022-09-23T06:30:08.537Z,97275.16
2022-09-23T06:32:36.689Z,97274.13
2022-09-23T06:35:05.091Z,97271.69
2022-09-23T06:37:33.881Z,97263.72
2022-09-23T06:40:02.621Z,97267.97
2022-09-23T06:42:32.135Z,97261.06
2022-09-23T06:45:01.857Z,97272.00
2022-09-23T06:47:30.174Z,97274.97
2022-09-23T06:49:58.265Z,97271.25
2022-09-23T06:52:26.725Z,97268.28
2022-09-23T06:54:54.785Z,97271.78
2022-09-23T06:57:22.926Z,97275.00
2022-09-23T06:59:52.360Z,97267.53
2022-09-23T07:02:20.598Z,97265.41
2022-09-23T07:04:49.060Z,97270.19
2022-09-23T07:07:18.692Z,97272.06
2022-09-23T07:09:47.679Z,97272.88
2022-09-23T07:12:16.347Z,97273.66
2022-09-23T07:14:46.107Z,97271.81
2022-09-23T07:17:15.682Z,97265.69
2022-09-23T07:19:44.107Z,97269.16
2022-09-23T07:22:12.296Z,97263.81
2022-09-23T07:24:40.558Z,97263.00
2022-09-23T07:27:08.695Z,97265.66
2022-09-23T07:29:46.528Z,97257.13
2022-09-23T07:32:18.124Z,97263.22
2022-09-23T07:34:47.197Z,97266.44
2022-09-23T07:37:15.334Z,97263.50
2022-09-23T07:39:44.108Z,97258.63
2022-09-23T07:42:13.346Z,97251.41
2022-09-23T07:44:42.033Z,97265.84
2022-09-23T07:47:10.166Z,97262.59
2022-09-23T07:49:39.688Z,97276.47
2022-09-23T07:52:07.791Z,97270.84
2022-09-23T07:54:35.930Z,97271.13
2022-09-23T07:57:04.185Z,97271.84
2022-09-23T07:59:32.220Z,97274.75
2022-09-23T08:02:00.565Z,97278.97
2022-09-23T08:04:30.200Z,97273.59
2022-09-23T08:07:01.154Z,97275.41
2022-09-23T08:09:31.803Z,97266.75
2022-09-23T08:12:00.120Z,97265.91
2022-09-23T08:14:28.599Z,97275.47
2022-09-23T08:16:57.667Z,97279.69
2022-09-23T08:19:25.713Z,97279.09
2022-09-23T08:21:54.480Z,97278.03
2022-09-23T08:24:24.588Z,97272.63
2022-09-23T08:26:54.065Z,97274.16
2022-09-23T08:29:23.423Z,97270.88
2022-09-23T08:31:51.499Z,97263.34
2022-09-23T08:34:20.913Z,97264.84
2022-09-23T08:36:49.017Z,97267.81
2022-09-23T08:39:18.601Z,97270.25
2022-09-23T08:41:58.241Z,97267.47
2022-09-23T08:44:31.139Z,97265.69
2022-09-23T08:47:06.824Z,97265.63
2022-09-23T08:49:39.421Z,97266.03
2022-09-23T08:52:14.586Z,97257.91
2022-09-23T08:54:42.616Z,97257.81
2022-09-23T08:57:20.736Z,97255.66
2022-09-23T08:59:49.312Z,97262.03
2022-09-23T09:02:20.828Z,97246.03
2022-09-23T09:04:51.947Z,97246.78
2022-09-23T09:07:36.182Z,97250.50
2022-09-23T09:10:11.500Z,97246.94
2022-09-23T09:12:43.639Z,97249.56
2022-09-23T09:15:14.273Z,97249.41
2022-09-23T09:17:48.461Z,97250.22
2022-09-23T09:20:23.451Z,97249.00
2022-09-23T09:22:55.045Z,97241.81
2022-09-23T09:25:28.765Z,97238.94
2022-09-23T09:28:01.654Z,97236.19
2022-09-23T09:30:29.757Z,97231.75
2022-09-23T09:33:01.132Z,97233.09
2022-09-23T09:35:36.808Z,97231.00
2022-09-23T09:38:05.755Z,97219.06
2022-09-23T09:40:34.586Z,97217.66
2022-09-23T09:43:05.239Z,97208.81
2022-09-23T09:45:57.470Z,97204.84
2022-09-23T09:48:32.799Z,97201.97
2022-09-23T09:51:19.072Z,97206.97
2022-09-23T09:53:47.114Z,97200.81
2022-09-23T09:56:16.480Z,97208.22
2022-09-23T09:58:48.432Z,97202.22
2022-09-23T10:01:23.316Z,97193.25
2022-09-23T10:03:56.933Z,97196.13
2022-09-23T10:06:28.539Z,97190.75
2022-09-23T10:09:11.399Z,97185.94
2022-09-23T10:11:39.815Z,97190.34
2022-09-23T10:14:13.465Z,97193.31
2022-09-23T10:16:42.581Z,97188.38
2022-09-23T10:19:17.994Z,97190.84
2022-09-23T10:21:52.597Z,97191.34
2022-09-23T10:24:23.998Z,97190.16
2022-09-23T10:26:58.021Z,97187.97
2022-09-23T10:29:31.932Z,97177.38
2022-09-23T10:32:25.706Z,97173.97
2022-09-23T10:34:57.037Z,97175.31
2022-09-23T10:37:33.580Z,97175.06
2022-09-23T10:40:20.178Z,97183.84
2022-09-23T10:43:12.746Z,97175.53
2022-09-23T10:46:05.712Z,97186.03
2022-09-23T10:48:42.719Z,97161.38
2022-09-23T10:51:15.734Z,97166.38
2022-09-23T10:53:52.206Z,97166.28
2022-09-23T10:56:26.658Z,97158.25
2022-09-23T10:59:08.820Z,97159.63
2022-09-23T11:01:44.629Z,97156.53
2022-09-23T11:04:27.274Z,97143.84
2022-09-23T11:07:14.150Z,97149.78
2022-09-23T11:09:55.026Z,97141.88
2022-09-23T11:12:32.422Z,97139.97
2022-09-23T11:15:16.524Z,97141.53
2022-09-23T11:18:23.365Z,97144.94
2022-09-23T11:20:58.453Z,97136.22
2022-09-23T11:23:37.115Z,97136.06
2022-09-23T11:26:12.405Z,97124.94
2022-09-23T11:29:00.721Z,97122.13
2022-09-23T11:31:38.791Z,97116.53
2022-09-23T11:34:31.024Z,97123.56
2022-09-23T11:37:02.322Z,97115.91
2022-09-23T11:39:33.885Z,97114.03
2022-09-23T11:42:03.126Z,97100.31
2022-09-23T11:44:34.203Z,97106.06
2022-09-23T11:47:08.114Z,97104.16
2022-09-23T11:49:40.777Z,97103.69
2022-09-23T11:52:12.791Z,97099.84
2022-09-23T11:54:44.981Z,97107.50
2022-09-23T11:57:18.921Z,97104.31
2022-09-23T12:02:30.296Z,97096.97
2022-09-23T12:05:02.896Z,97085.19
2022-09-23T12:07:40.656Z,97084.22
2022-09-23T12:10:10.035Z,97076.25
2022-09-23T12:12:42.680Z,97073.41
2022-09-23T12:15:18.125Z,97069.41
2022-09-23T12:17:56.927Z,97076.88
2022-09-23T12:20:49.931Z,97071.09
2022-09-23T12:23:32.626Z,97064.56
2022-09-23T12:26:02.202Z,97066.41
2022-09-23T12:28:32.590Z,97064.81
2022-09-23T12:31:03.483Z,97071.03
2022-09-23T12:33:33.292Z,97064.44
2022-09-23T12:36:06.633Z,97063.53
2022-09-23T12:38:36.653Z,97061.41
2022-09-23T12:41:20.517Z,97059.59
2022-09-23T12:43:53.870Z,97054.75
2022-09-23T12:46:26.197Z,97044.81
2022-09-23T12:49:02.863Z,97039.78
2022-09-23T12:51:34.115Z,97041.19
2022-09-23T12:54:24.120Z,97042.56
2022-09-23T12:57:00.395Z,97036.22
2022-09-23T12:59:30.848Z,97036.34
2022-09-23T13:02:12.164Z,97032.91
2022-09-23T13:05:14.820Z,97025.75
2022-09-23T13:07:47.090Z,97028.00
2022-09-23T13:10:19.350Z,97024.56
2022-09-23T13:12:47.864Z,97021.91
2022-09-23T13:15:28.168Z,97023.78
2022-09-23T13:18:24.745Z,97018.38
2022-09-23T13:20:57.003Z,97020.72
2022-09-23T13:23:27.540Z,97020.09
2022-09-23T13:25:57.735Z,97013.03
2022-09-23T13:28:32.398Z,97018.28
2022-09-23T13:31:05.170Z,97016.34
2022-09-23T13:33:39.768Z,97013.44
2022-09-23T13:36:13.464Z,97007.25
2022-09-23T13:38:42.980Z,97004.34
2022-09-23T13:41:14.960Z,96997.47
2022-09-23T13:43:44.963Z,96991.56
2022-09-23T13:46:14.617Z,96989.31
2022-09-23T13:48:45.353Z,96982.63
2022-09-23T13:51:24.577Z,96983.00
2022-09-23T13:53:55.628Z,96972.56
2022-09-23T13:56:24.970Z,96972.13
2022-09-23T13:58:53.381Z,96977.34
2022-09-23T14:01:32.336Z,96978.69
2022-09-23T14:04:00.843Z,96978.00
2022-09-23T14:06:30.995Z,96982.97
2022-09-23T14:09:02.167Z,96969.63
2022-09-23T14:11:31.403Z,96971.44
2022-09-23T14:14:07.635Z,96970.56
2022-09-23T14:16:37.950Z,96969.63
2022-09-23T14:19:06.630Z,96964.44
2022-09-23T14:21:36.179Z,96959.72
2022-09-23T14:24:23.731Z,96960.59
2022-09-23T14:26:54.382Z,96954.00
2022-09-23T14:29:25.675Z,96949.91
2022-09-23T14:31:57.720Z,96946.03
2022-09-23T14:34:47.035Z,96934.63
2022-09-23T14:37:41.107Z,96951.19
2022-09-23T14:40:14.995Z,96940.66
2022-09-23T14:42:44.912Z,96939.09
2022-09-23T14:45:15.843Z,96944.06
2022-09-23T14:47:46.326Z,96933.38
2022-09-23T14:50:39.504Z,96938.75
2022-09-23T14:53:33.839Z,96922.16
2022-09-23T14:56:17.108Z,96927.16
2022-09-23T14:58:52.353Z,96934.06
2022-09-23T15:01:33.976Z,96922.47
2022-09-23T15:04:11.756Z,96919.59
2022-09-23T15:06:41.701Z,96916.34
2022-09-23T15:09:13.145Z,96930.75
2022-09-23T15:11:41.175Z,96918.38
2022-09-23T15:14:36.150Z,96914.47
2022-09-23T15:16:59.472Z,96916.72
2022-09-23T15:19:28.309Z,96919.41
2022-09-23T15:21:56.318Z,96905.97
2022-09-23T15:24:40.168Z,96907.28
2022-09-23T15:27:29.666Z,96905.00
2022-09-23T15:30:03.927Z,96905.00
2022-09-23T15:32:31.936Z,96900.09
2022-09-23T15:34:59.944Z,96898.44
2022-09-23T15:37:28.746Z,96901.06
2022-09-23T15:39:59.298Z,96899.75
2022-09-23T15:42:27.523Z,96898.59
2022-09-23T15:44:55.483Z,96892.72
2022-09-23T15:47:23.488Z,96892.53
2022-09-23T15:49:51.634Z,96888.78
2022-09-23T15:52:22.823Z,96886.41
2022-09-23T15:54:50.849Z,96890.00
2022-09-23T15:57:21.546Z,96887.94
2022-09-23T15:59:49.720Z,96887.59
2022-09-23T16:02:21.339Z,96888.81
2022-09-23T16:04:50.992Z,96891.56
2022-09-23T16:07:19.864Z,96884.56
2022-09-23T16:09:47.951Z,96886.03
2022-09-23T16:12:16.001Z,96883.94
2022-09-23T16:14:45.364Z,96888.59
2022-09-23T16:17:14.947Z,96887.38
2022-09-23T16:19:43.538Z,96884.19
2022-09-23T16:22:11.895Z,96886.16
2022-09-23T16:24:41.187Z,96892.72
2022-09-23T16:27:09.393Z,96892.63
2022-09-23T16:29:37.415Z,96884.03
2022-09-23T16:32:06.842Z,96885.41
2022-09-23T16:34:34.938Z,96888.38
2022-09-23T16:37:03.768Z,96892.13
2022-09-23T16:39:31.779Z,96882.59
2022-09-23T16:41:59.765Z,96887.91
2022-09-23T16:44:27.751Z,96878.41
2022-09-23T16:46:57.702Z,96881.34
2022-09-23T16:49:27.414Z,96881.16
2022-09-23T16:51:55.385Z,96884.88
2022-09-23T16:54:23.921Z,96886.25
2022-09-23T16:56:52.205Z,96881.38
2022-09-23T16:59:20.163Z,96882.31
2022-09-23T17:02:05.864Z,96881.28
2022-09-23T17:04:35.246Z,96879.47
2022-09-23T17:07:03.212Z,96882.72
2022-09-23T17:09:31.257Z,96887.94
2022-09-23T17:12:04.658Z,96885.00
2022-09-23T17:14:32.733Z,96887.47
2022-09-23T17:17:01.310Z,96882.56
2022-09-23T17:19:29.371Z,96877.69
2022-09-23T17:21:58.729Z,96880.94
2022-09-23T17:24:26.766Z,96880.38
2022-09-23T17:26:54.793Z,96887.13
2022-09-23T17:29:22.783Z,96878.31
2022-09-23T17:31:50.826Z,96887.44
2022-09-23T17:34:19.618Z,96889.13
2022-09-23T17:36:47.661Z,96888.38
2022-09-23T17:39:18.339Z,96893.56
2022-09-23T17:41:46.446Z,96893.31
2022-09-23T17:44:16.143Z,96901.97
2022-09-23T17:46:44.154Z,96898.19
2022-09-23T17:49:12.177Z,96900.31
2022-09-23T17:51:40.554Z,96905.81
2022-09-23T17:54:08.878Z,96908.25
2022-09-23T17:56:38.294Z,96908.13
2022-09-23T17:59:06.342Z,96905.53
2022-09-23T18:01:35.573Z,96909.06
2022-09-23T18:04:05.683Z,96907.03
2022-09-23T18:06:36.632Z,96914.19
2022-09-23T18:09:06.234Z,96911.69
2022-09-23T18:11:36.088Z,96909.16
2022-09-23T18:14:07.430Z,96912.06
2022-09-23T18:16:37.058Z,96907.94
2022-09-23T18:19:05.608Z,96907.16
2022-09-23T18:21:36.371Z,96915.00
2022-09-23T18:26:54.573Z,96912.94
2022-09-23T18:29:23.960Z,96917.28
2022-09-23T18:31:52.222Z,96909.34
2022-09-23T18:34:20.442Z,96907.16
2022-09-23T18:36:48.576Z,96905.69
2022-09-23T18:39:16.728Z,96909.34
2022-09-23T18:41:44.754Z,96910.66
2022-09-23T18:44:12.839Z,96911.94
2022-09-23T18:46:42.786Z,96912.25
2022-09-23T18:49:28.210Z,96919.41
2022-09-23T18:51:57.311Z,96912.25
2022-09-23T18:54:26.128Z,96912.72
2022-09-23T18:56:54.334Z,96904.94
2022-09-23T18:59:25.203Z,96904.31
2022-09-23T19:01:55.559Z,96903.22
2022-09-23T19:04:24.982Z,96903.38
2022-09-23T19:06:53.695Z,96900.81
2022-09-23T19:09:21.820Z,96900.50
2022-09-23T19:11:52.165Z,96898.28
2022-09-23T19:14:20.870Z,96896.84
2022-09-23T19:16:50.678Z,96891.91
2022-09-23T19:19:20.090Z,96894.75
2022-09-23T19:21:48.153Z,96895.38
2022-09-23T19:24:20.046Z,96901.41
2022-09-23T19:26:48.587Z,96905.81
2022-09-23T19:29:19.568Z,96906.25
2022-09-23T19:31:47.905Z,96913.97
2022-09-23T19:34:17.781Z,96911.09
2022-09-23T19:36:48.280Z,96909.06
2022-09-23T19:39:18.606Z,96908.00
2022-09-23T19:41:47.156Z,96908.19
2022-09-23T19:44:16.576Z,96906.59
2022-09-23T19:46:45.823Z,96900.72
2022-09-23T19:49:14.487Z,96901.34
2022-09-23T19:51:44.115Z,96901.16
2022-09-23T19:54:19.074Z,96899.41
2022-09-23T19:56:47.681Z,96894.75
2022-09-23T19:59:18.771Z,96895.69
2022-09-23T20:01:47.755Z,96899.19
2022-09-23T20:04:16.650Z,96896.31
2022-09-23T20:06:46.127Z,96901.53
2022-09-23T20:09:15.628Z,96885.81
2022-09-23T20:11:44.274Z,96895.91
2022-09-23T20:14:13.049Z,96896.50
2022-09-23T20:16:41.474Z,96889.19
2022-09-23T20:19:11.163Z,96887.59
2022-09-23T20:21:39.218Z,96892.19
2022-09-23T20:24:09.567Z,96884.41
2022-09-23T20:26:56.883Z,96880.91
2022-09-23T20:29:24.871Z,96874.72
2022-09-23T20:31:53.259Z,96881.25
2022-09-23T20:34:21.638Z,96885.03
2022-09-23T20:36:49.713Z,96885.25
2022-09-23T20:39:17.800Z,96883.94
2022-09-23T20:41:48.179Z,96872.56
2022-09-23T20:44:17.187Z,96886.94
2022-09-23T20:46:48.469Z,96888.34
2022-09-23T20:49:17.866Z,96887.97
2022-09-23T20:51:46.072Z,96879.81
2022-09-23T20:54:14.113Z,96882.13
2022-09-23T20:56:42.206Z,96878.63
2022-09-23T20:59:14.824Z,96887.78
2022-09-23T21:01:42.884Z,96878.63
2022-09-23T21:04:11.399Z,96874.84
2022-09-23T21:06:39.732Z,96877.66
2022-09-23T21:09:08.800Z,96870.19
2022-09-23T21:11:36.868Z,96870.47
2022-09-23T21:14:04.925Z,96866.97
2022-09-23T21:16:34.394Z,96860.75
2022-09-23T21:19:02.962Z,96864.03
2022-09-23T21:21:31.136Z,96864.94
2022-09-23T21:24:17.175Z,96854.00
2022-09-23T21:26:47.359Z,96866.38
2022-09-23T21:29:15.416Z,96861.56
2022-09-23T21:31:45.343Z,96866.56
2022-09-23T21:34:13.956Z,96855.81
2022-09-23T21:36:44.142Z,96864.38
2022-09-23T21:39:12.889Z,96862.19
2022-09-23T21:41:41.096Z,96859.97
2022-09-23T21:44:09.400Z,96860.59
2022-09-23T21:46:37.789Z,96856.81
2022-09-23T21:49:09.053Z,96864.63
2022-09-23T21:51:40.478Z,96854.25
2022-09-23T21:54:12.766Z,96863.94
2022-09-23T21:56:40.859Z,96866.00
2022-09-23T21:59:08.994Z,96865.81
2022-09-23T22:01:38.331Z,96859.84
2022-09-23T22:04:13.142Z,96856.84
2022-09-23T22:06:41.632Z,96857.94
2022-09-23T22:09:11.787Z,96863.03
2022-09-23T22:11:58.498Z,96862.34
2022-09-23T22:14:27.255Z,96863.94
2022-09-23T22:16:57.506Z,96857.56
2022-09-23T22:19:28.511Z,96863.03
2022-09-23T22:21:56.633Z,96858.66
2022-09-23T22:24:24.621Z,96853.09
2022-09-23T22:26:52.716Z,96838.56
2022-09-23T22:29:38.414Z,96840.16
2022-09-23T22:32:27.611Z,96838.25
2022-09-23T22:34:57.550Z,96843.03
2022-09-23T22:37:27.485Z,96840.75
2022-09-23T22:39:56.121Z,96840.66
2022-09-23T22:42:24.250Z,96828.81
2022-09-23T22:44:52.436Z,96827.13
2022-09-23T22:47:21.111Z,96827.41
2022-09-23T22:49:54.577Z,96829.41
2022-09-23T22:52:25.215Z,96832.09
2022-09-23T22:54:53.564Z,96847.13
2022-09-23T22:57:21.585Z,96845.06
2022-09-23T22:59:49.591Z,96847.75
2022-09-23T23:02:18.371Z,96842.75
2022-09-23T23:04:47.549Z,96828.03
2022-09-23T23:07:16.504Z,96823.44
2022-09-23T23:09:45.895Z,96824.06
2022-09-23T23:12:13.913Z,96809.31
2022-09-23T23:14:42.405Z,96810.72
2022-09-23T23:17:10.507Z,96807.25
2022-09-23T23:19:38.641Z,96815.78
2022-09-23T23:22:06.693Z,96817.28
2022-09-23T23:24:34.715Z,96821.28
2022-09-23T23:27:04.104Z,96828.03
2022-09-23T23:29:32.221Z,96826.25
2022-09-23T23:32:00.240Z,96817.88
2022-09-23T23:34:28.341Z,96813.91
2022-09-23T23:36:56.399Z,96814.50
2022-09-23T23:39:25.666Z,96806.34
2022-09-23T23:41:54.883Z,96798.88
2022-09-23T23:44:25.096Z,96807.72
2022-09-23T23:46:53.719Z,96815.31
2022-09-23T23:49:22.014Z,96804.56
2022-09-23T23:51:50.247Z,96799.19
2022-09-23T23:54:18.355Z,96798.06
2022-09-23T23:56:46.464Z,96796.78
2022-09-23T23:59:14.516Z,96792.81
